createdAt,value
2022-10-16T00:01:14.050Z,100378.94
2022-10-16T00:04:01.031Z,100377.19
2022-10-16T00:06:47.706Z,100380.66
2022-10-16T00:09:32.754Z,100378.06
2022-10-16T00:12:18.160Z,100364.22
2022-10-16T00:15:03.171Z,100374.59
2022-10-16T00:17:48.544Z,100371.13
2022-10-16T00:20:37.148Z,100370.25
2022-10-16T00:23:22.986Z,100375.47
2022-10-16T00:26:11.711Z,100380.66
2022-10-16T00:28:57.229Z,100372.84
2022-10-16T00:31:42.279Z,100389.31
2022-10-16T00:34:27.242Z,100379.78
2022-10-16T00:37:12.829Z,100369.41
2022-10-16T00:39:57.986Z,100364.19
2022-10-16T00:42:42.958Z,100366.81
2022-10-16T00:45:28.172Z,100368.53
2022-10-16T00:48:14.167Z,100385.00
2022-10-16T00:50:59.830Z,100385.84
2022-10-16T00:53:45.767Z,100373.75
2022-10-16T00:56:31.048Z,100379.78
2022-10-16T00:59:22.077Z,100389.34
2022-10-16T01:02:09.497Z,100387.59
2022-10-16T01:04:55.307Z,100391.91
2022-10-16T01:07:53.928Z,100404.88
2022-10-16T01:10:46.361Z,100411.84
2022-10-16T01:13:37.417Z,100403.19
2022-10-16T01:16:38.541Z,100405.78
2022-10-16T01:19:26.714Z,100401.44
2022-10-16T01:22:11.954Z,100404.03
2022-10-16T01:25:02.142Z,100403.19
2022-10-16T01:27:49.496Z,100408.38
2022-10-16T01:30:36.633Z,100411.78
2022-10-16T01:33:28.233Z,100407.44
2022-10-16T01:36:18.121Z,100422.16
2022-10-16T01:39:04.070Z,100429.06
2022-10-16T01:42:02.191Z,100420.44
2022-10-16T01:44:49.472Z,100429.06
2022-10-16T01:47:37.598Z,100426.50
2022-10-16T01:50:23.656Z,100416.09
2022-10-16T01:53:12.465Z,100420.41
2022-10-16T01:56:00.185Z,100424.75
2022-10-16T01:58:56.393Z,100413.53
2022-10-16T02:01:46.081Z,100410.91
2022-10-16T02:04:46.202Z,100419.56
2022-10-16T02:07:31.180Z,100414.31
2022-10-16T02:10:16.846Z,100411.72
2022-10-16T02:13:26.353Z,100422.94
2022-10-16T02:16:12.866Z,100422.91
2022-10-16T02:18:57.641Z,100427.25
2022-10-16T02:21:59.062Z,100432.44
2022-10-16T02:25:03.469Z,100425.50
2022-10-16T02:28:01.768Z,100418.59
2022-10-16T02:30:59.250Z,100416.88
2022-10-16T02:33:47.128Z,100428.16
2022-10-16T02:36:34.618Z,100429.03
2022-10-16T02:39:21.243Z,100428.16
2022-10-16T02:42:11.287Z,100419.47
2022-10-16T02:44:56.543Z,100423.81
2022-10-16T02:47:41.513Z,100429.91
2022-10-16T02:50:26.232Z,100431.66
2022-10-16T02:53:11.170Z,100423.00
2022-10-16T02:55:56.104Z,100429.91
2022-10-16T02:58:41.052Z,100431.66
2022-10-16T03:01:26.160Z,100431.66
2022-10-16T03:04:11.282Z,100428.22
2022-10-16T03:06:57.685Z,100433.38
2022-10-16T03:09:42.463Z,100423.00
2022-10-16T03:12:29.431Z,100426.47
2022-10-16T03:15:14.320Z,100429.94
2022-10-16T03:18:00.350Z,100431.66
2022-10-16T03:20:45.677Z,100429.03
2022-10-16T03:26:15.734Z,100429.03
2022-10-16T03:29:00.593Z,100415.16
2022-10-16T03:31:45.980Z,100422.09
2022-10-16T03:34:31.121Z,100417.72
2022-10-16T03:37:16.028Z,100426.41
2022-10-16T03:40:01.719Z,100434.19
2022-10-16T03:42:46.799Z,100425.53
2022-10-16T03:45:31.731Z,100429.00
2022-10-16T03:48:16.521Z,100435.06
2022-10-16T03:51:01.499Z,100435.06
2022-10-16T03:53:46.392Z,100432.47
2022-10-16T03:56:31.832Z,100434.22
2022-10-16T03:59:16.805Z,100424.72
2022-10-16T04:02:01.664Z,100429.03
2022-10-16T04:04:46.709Z,100423.84
2022-10-16T04:07:31.699Z,100416.06
2022-10-16T04:10:16.884Z,100422.16
2022-10-16T04:13:01.913Z,100422.16
2022-10-16T04:15:46.814Z,100416.09
2022-10-16T04:18:32.046Z,100419.56
2022-10-16T04:21:17.150Z,100424.78
2022-10-16T04:24:02.031Z,100426.50
2022-10-16T04:26:47.033Z,100430.81
2022-10-16T04:29:32.310Z,100436.03
2022-10-16T04:32:17.234Z,100446.41
2022-10-16T04:35:02.122Z,100445.56
2022-10-16T04:37:47.561Z,100450.75
2022-10-16T04:40:33.110Z,100450.75
2022-10-16T04:43:18.376Z,100442.97
2022-10-16T04:46:03.736Z,100438.63
2022-10-16T04:48:49.135Z,100451.63
2022-10-16T04:51:34.341Z,100458.56
2022-10-16T04:54:19.242Z,100463.75
2022-10-16T04:57:04.301Z,100468.97
2022-10-16T04:59:49.659Z,100459.41
2022-10-16T05:02:35.283Z,100458.53
2022-10-16T05:05:20.498Z,100466.31
2022-10-16T05:08:05.373Z,100476.72
2022-10-16T05:10:50.132Z,100468.91
2022-10-16T05:13:35.655Z,100466.31
2022-10-16T05:16:21.096Z,100462.84
2022-10-16T05:22:11.388Z,100487.06
2022-10-16T05:24:56.387Z,100486.19
2022-10-16T05:27:41.408Z,100488.81
2022-10-16T05:30:26.422Z,100479.28
2022-10-16T05:33:11.402Z,100476.66
2022-10-16T05:35:56.199Z,100489.63
2022-10-16T05:38:41.067Z,100484.44
2022-10-16T05:41:26.045Z,100481.84
2022-10-16T05:44:11.212Z,100495.66
2022-10-16T05:46:56.050Z,100505.22
2022-10-16T05:49:41.566Z,100513.84
2022-10-16T05:52:28.021Z,100519.84
2022-10-16T05:55:13.061Z,100532.88
2022-10-16T05:57:58.029Z,100532.88
2022-10-16T06:00:43.556Z,100520.75
2022-10-16T06:03:28.723Z,100530.25
2022-10-16T06:06:16.352Z,100534.56
2022-10-16T06:09:01.657Z,100543.22
2022-10-16T06:11:46.560Z,100543.22
2022-10-16T06:14:31.465Z,100545.81
2022-10-16T06:17:17.581Z,100548.44
2022-10-16T06:20:03.151Z,100550.19
2022-10-16T06:22:48.461Z,100546.72
2022-10-16T06:25:33.856Z,100544.13
2022-10-16T06:28:19.227Z,100547.59
2022-10-16T06:31:08.297Z,100547.63
2022-10-16T06:33:55.709Z,100550.22
2022-10-16T06:36:41.470Z,100560.63
2022-10-16T06:39:26.502Z,100552.84
2022-10-16T06:42:11.563Z,100567.56
2022-10-16T06:44:57.140Z,100571.91
2022-10-16T06:47:42.454Z,100574.50
2022-10-16T06:50:27.588Z,100566.72
2022-10-16T06:53:12.782Z,100574.53
2022-10-16T06:56:00.572Z,100581.47
2022-10-16T06:58:46.406Z,100603.09
2022-10-16T07:01:33.077Z,100591.03
2022-10-16T07:04:18.391Z,100598.03
2022-10-16T07:07:06.901Z,100598.91
2022-10-16T07:09:55.054Z,100595.44
2022-10-16T07:12:40.049Z,100598.94
2022-10-16T07:15:26.638Z,100599.84
2022-10-16T07:18:11.768Z,100601.56
2022-10-16T07:21:04.471Z,100616.31
2022-10-16T07:23:54.080Z,100618.06
2022-10-16T07:26:39.709Z,100625.03
2022-10-16T07:29:24.833Z,100633.69
2022-10-16T07:32:09.886Z,100630.25
2022-10-16T07:34:55.312Z,100637.22
2022-10-16T07:37:40.180Z,100639.84
2022-10-16T07:40:25.131Z,100634.66
2022-10-16T07:43:10.551Z,100644.19
2022-10-16T07:45:57.526Z,100663.28
2022-10-16T07:48:45.400Z,100657.19
2022-10-16T07:51:30.967Z,100662.41
2022-10-16T07:54:16.082Z,100663.28
2022-10-16T07:57:00.886Z,100670.22
2022-10-16T07:59:48.982Z,100661.53
2022-10-16T08:02:33.843Z,100671.91
2022-10-16T08:05:18.912Z,100676.28
2022-10-16T08:08:04.177Z,100671.94
2022-10-16T08:10:51.354Z,100676.31
2022-10-16T08:13:36.598Z,100681.53
2022-10-16T08:16:22.033Z,100669.38
2022-10-16T08:19:07.087Z,100671.13
2022-10-16T08:21:54.126Z,100668.59
2022-10-16T08:24:39.183Z,100680.75
2022-10-16T08:27:25.126Z,100661.63
2022-10-16T08:30:11.157Z,100672.00
2022-10-16T08:32:56.238Z,100666.78
2022-10-16T08:35:41.158Z,100678.94
2022-10-16T08:38:26.475Z,100678.06
2022-10-16T08:41:37.428Z,100675.44
2022-10-16T08:44:22.359Z,100671.06
2022-10-16T08:47:18.432Z,100683.19
2022-10-16T08:50:11.498Z,100681.44
2022-10-16T08:52:57.947Z,100687.50
2022-10-16T08:55:50.834Z,100678.81
2022-10-16T08:58:36.162Z,100704.81
2022-10-16T09:01:24.946Z,100704.78
2022-10-16T09:04:43.044Z,100695.13
2022-10-16T09:07:31.221Z,100696.88
2022-10-16T09:10:35.152Z,100682.19
2022-10-16T09:13:49.748Z,100708.13
2022-10-16T09:16:40.473Z,100703.78
2022-10-16T09:19:32.425Z,100686.41
2022-10-16T09:22:19.154Z,100714.22
2022-10-16T09:25:13.738Z,100697.69
2022-10-16T09:27:59.160Z,100687.22
2022-10-16T09:30:44.557Z,100687.16
2022-10-16T09:33:35.855Z,100681.03
2022-10-16T09:36:22.135Z,100680.09
2022-10-16T09:39:09.794Z,100657.53
2022-10-16T09:41:56.836Z,100666.09
2022-10-16T09:44:42.709Z,100685.13
2022-10-16T09:47:30.368Z,100672.09
2022-10-16T09:50:29.345Z,100642.50
2022-10-16T09:53:16.104Z,100626.75
2022-10-16T09:56:01.048Z,100618.19
2022-10-16T09:58:51.594Z,100622.41
2022-10-16T10:01:39.879Z,100637.19
2022-10-16T10:04:26.171Z,100641.44
2022-10-16T10:07:25.862Z,100631.00
2022-10-16T10:10:29.221Z,100655.09
2022-10-16T10:13:23.487Z,100643.66
2022-10-16T10:16:11.164Z,100637.41
2022-10-16T10:19:00.623Z,100610.47
2022-10-16T10:21:46.987Z,100623.44
2022-10-16T10:24:32.012Z,100608.63
2022-10-16T10:27:19.605Z,100623.44
2022-10-16T10:30:19.071Z,100618.13
2022-10-16T10:33:13.359Z,100628.75
2022-10-16T10:36:01.727Z,100641.66
2022-10-16T10:38:52.104Z,100642.78
2022-10-16T10:41:58.834Z,100675.94
2022-10-16T10:45:18.294Z,100658.78
2022-10-16T10:48:30.471Z,100654.41
2022-10-16T10:51:24.649Z,100689.16
2022-10-16T10:54:36.088Z,100696.00
2022-10-16T10:57:44.002Z,100703.72
2022-10-16T11:00:42.505Z,100710.38
2022-10-16T11:03:46.441Z,100723.25
2022-10-16T11:06:41.267Z,100692.44
2022-10-16T11:09:37.709Z,100701.16
2022-10-16T11:12:25.649Z,100677.59
2022-10-16T11:15:20.127Z,100701.84
2022-10-16T11:18:18.455Z,100622.63
2022-10-16T11:21:12.328Z,100675.13
2022-10-16T11:23:57.415Z,100664.00
2022-10-16T11:26:45.855Z,100694.50
2022-10-16T11:29:33.088Z,100707.66
2022-10-16T11:32:24.944Z,100722.44
2022-10-16T11:35:20.802Z,100659.50
2022-10-16T11:38:37.754Z,100662.25
2022-10-16T11:41:48.047Z,100673.38
2022-10-16T11:45:00.489Z,100661.94
2022-10-16T11:47:59.304Z,100693.47
2022-10-16T11:50:54.865Z,100676.16
2022-10-16T11:53:51.553Z,100714.25
2022-10-16T11:56:42.073Z,100723.72
2022-10-16T11:59:34.533Z,100704.63
2022-10-16T12:02:55.838Z,100695.16
2022-10-16T12:06:07.587Z,100696.78
2022-10-16T12:08:54.521Z,100701.72
2022-10-16T12:11:39.812Z,100718.09
2022-10-16T12:14:36.943Z,100663.16
2022-10-16T12:17:37.655Z,100712.66
2022-10-16T12:20:31.578Z,100711.91
2022-10-16T12:23:22.230Z,100663.19
2022-10-16T12:26:07.354Z,100705.00
2022-10-16T12:28:52.809Z,100702.22
2022-10-16T12:31:49.749Z,100724.38
2022-10-16T12:34:44.338Z,100698.81
2022-10-16T12:37:35.854Z,100709.13
2022-10-16T12:40:30.882Z,100709.22
2022-10-16T12:43:26.075Z,100737.16
2022-10-16T12:46:14.186Z,100675.50
2022-10-16T12:49:14.401Z,100687.66
2022-10-16T12:51:59.497Z,100689.22
2022-10-16T12:54:44.884Z,100691.13
2022-10-16T12:57:54.434Z,100695.75
2022-10-16T13:00:51.692Z,100665.66
2022-10-16T13:04:19.970Z,100697.03
2022-10-16T13:07:23.246Z,100710.56
2022-10-16T13:10:24.242Z,100748.31
2022-10-16T13:13:08.937Z,100714.72
2022-10-16T13:16:23.365Z,100685.34
2022-10-16T13:19:14.283Z,100674.50
2022-10-16T13:22:30.821Z,100722.09
2022-10-16T13:25:38.905Z,100700.69
2022-10-16T13:28:30.691Z,100731.81
2022-10-16T13:31:22.662Z,100695.63
2022-10-16T13:34:14.959Z,100756.06
2022-10-16T13:37:00.465Z,100812.16
2022-10-16T13:39:45.569Z,100830.00
2022-10-16T13:42:30.697Z,100806.19
2022-10-16T13:45:22.302Z,100795.91
2022-10-16T13:48:11.426Z,100833.78
2022-10-16T13:51:32.517Z,100798.53
2022-10-16T13:54:17.458Z,100814.84
2022-10-16T13:57:22.583Z,100783.59
2022-10-16T14:00:22.845Z,100805.91
2022-10-16T14:03:16.027Z,100805.53
2022-10-16T14:06:03.624Z,100769.88
2022-10-16T14:09:00.730Z,100813.00
2022-10-16T14:11:49.971Z,100823.22
2022-10-16T14:14:46.957Z,100839.41
2022-10-16T14:17:35.945Z,100832.69
2022-10-16T14:20:27.117Z,100814.38
2022-10-16T14:23:44.605Z,100850.56
2022-10-16T14:26:29.806Z,100812.41
2022-10-16T14:29:18.801Z,100809.94
2022-10-16T14:32:25.749Z,100791.59
2022-10-16T14:35:31.567Z,100813.94
2022-10-16T14:38:20.881Z,100814.09
2022-10-16T14:41:07.075Z,100800.75
2022-10-16T14:43:57.964Z,100803.66
2022-10-16T14:46:44.682Z,100831.91
2022-10-16T14:49:30.291Z,100827.72
2022-10-16T14:52:15.450Z,100811.63
2022-10-16T14:55:00.508Z,100813.41
2022-10-16T14:57:46.680Z,100805.25
2022-10-16T15:00:32.152Z,100818.00
2022-10-16T15:03:17.293Z,100831.88
2022-10-16T15:06:02.856Z,100802.34
2022-10-16T15:08:48.160Z,100849.09
2022-10-16T15:11:34.086Z,100866.97
2022-10-16T15:14:19.142Z,100877.72
2022-10-16T15:17:04.218Z,100836.72
2022-10-16T15:19:49.761Z,100819.91
2022-10-16T15:22:35.135Z,100791.00
2022-10-16T15:25:43.205Z,100773.66
2022-10-16T15:28:30.512Z,100783.25
2022-10-16T15:31:20.092Z,100838.69
2022-10-16T15:34:06.153Z,100882.91
2022-10-16T15:36:51.309Z,100861.91
2022-10-16T15:39:41.240Z,100893.31
2022-10-16T15:42:26.927Z,100871.41
2022-10-16T15:45:13.686Z,100861.50
2022-10-16T15:47:58.969Z,100869.59
2022-10-16T15:53:29.369Z,100872.22
2022-10-16T15:56:15.601Z,100891.84
2022-10-16T15:59:01.454Z,100902.31
2022-10-16T16:01:47.079Z,100900.72
2022-10-16T16:04:43.545Z,100926.59
2022-10-16T16:07:29.621Z,100920.34
2022-10-16T16:10:15.696Z,100937.00
2022-10-16T16:13:00.990Z,100950.19
2022-10-16T16:15:46.312Z,100948.50
2022-10-16T16:18:31.370Z,100958.09
2022-10-16T16:21:16.791Z,100952.91
2022-10-16T16:24:02.334Z,100942.31
2022-10-16T16:26:47.450Z,100936.28
2022-10-16T16:29:32.704Z,100967.81
2022-10-16T16:32:17.637Z,100971.38
2022-10-16T16:35:03.996Z,100948.69
2022-10-16T16:37:49.460Z,100939.97
2022-10-16T16:40:34.556Z,100943.53
2022-10-16T16:43:23.131Z,100988.19
2022-10-16T16:46:08.651Z,100980.38
2022-10-16T16:48:53.796Z,100952.47
2022-10-16T16:51:40.647Z,100944.59
2022-10-16T16:54:26.358Z,100967.28
2022-10-16T16:57:11.665Z,100993.41
2022-10-16T16:59:56.683Z,100982.88
2022-10-16T17:02:41.963Z,100961.91
2022-10-16T17:05:27.451Z,100964.59
2022-10-16T17:08:12.510Z,100967.25
2022-10-16T17:10:58.469Z,100996.88
2022-10-16T17:13:44.095Z,101007.34
2022-10-16T17:16:35.041Z,101010.84
2022-10-16T17:19:20.820Z,101005.59
2022-10-16T17:22:06.047Z,101002.09
2022-10-16T17:24:51.612Z,101010.00
2022-10-16T17:27:36.807Z,101027.44
2022-10-16T17:30:24.810Z,101032.66
2022-10-16T17:33:11.391Z,101042.22
2022-10-16T17:36:00.067Z,101013.47
2022-10-16T17:38:46.196Z,101007.38
2022-10-16T17:41:33.168Z,101025.69
2022-10-16T17:44:18.675Z,101032.69
2022-10-16T17:47:03.768Z,101027.47
2022-10-16T17:49:48.878Z,101009.13
2022-10-16T17:52:34.082Z,100994.34
2022-10-16T17:55:26.354Z,100970.88
2022-10-16T17:58:12.365Z,100992.63
2022-10-16T18:00:57.489Z,101001.34
2022-10-16T18:03:42.641Z,101030.94
2022-10-16T18:06:28.755Z,101056.16
2022-10-16T18:09:16.204Z,101079.63
2022-10-16T18:12:01.574Z,101062.25
2022-10-16T18:14:46.826Z,101035.28
2022-10-16T18:17:32.152Z,101057.03
2022-10-16T18:20:17.782Z,101038.78
2022-10-16T18:23:03.080Z,101046.59
2022-10-16T18:25:51.730Z,101055.28
2022-10-16T18:28:37.133Z,101065.72
2022-10-16T18:31:23.374Z,101065.72
2022-10-16T18:34:08.511Z,101083.03
2022-10-16T18:36:55.081Z,101088.25
2022-10-16T18:39:40.669Z,101070.94
2022-10-16T18:42:26.258Z,101070.91
2022-10-16T18:45:11.526Z,101071.78
2022-10-16T18:47:56.799Z,101070.03
2022-10-16T18:50:42.239Z,101070.84
2022-10-16T18:56:19.560Z,101059.53
2022-10-16T18:59:06.901Z,101049.06
2022-10-16T19:01:52.269Z,101046.50
2022-10-16T19:04:37.914Z,101034.34
2022-10-16T19:07:22.981Z,101020.44
2022-10-16T19:10:08.463Z,101029.19
2022-10-16T19:12:53.800Z,101022.25
2022-10-16T19:15:44.464Z,100999.63
2022-10-16T19:18:32.178Z,100999.63
2022-10-16T19:21:17.830Z,100995.28
2022-10-16T19:24:04.128Z,100994.41
2022-10-16T19:26:49.308Z,100994.38
2022-10-16T19:29:34.636Z,100999.63
2022-10-16T19:32:19.558Z,100992.66
2022-10-16T19:35:05.257Z,101000.47
2022-10-16T19:37:50.670Z,101004.84
2022-10-16T19:40:35.542Z,101013.53
2022-10-16T19:43:20.443Z,101011.81
2022-10-16T19:46:07.785Z,101005.72
2022-10-16T19:49:06.074Z,101011.78
2022-10-16T19:51:51.574Z,101003.97
2022-10-16T19:54:37.847Z,100996.13
2022-10-16T19:57:27.377Z,101000.47
2022-10-16T20:00:13.083Z,101007.44
2022-10-16T20:02:58.122Z,101014.41
2022-10-16T20:05:56.649Z,101035.28
2022-10-16T20:08:43.256Z,101038.78
2022-10-16T20:11:31.544Z,101068.31
2022-10-16T20:14:16.722Z,101072.69
2022-10-16T20:17:01.690Z,101075.28
2022-10-16T20:19:47.368Z,101081.34
2022-10-16T20:22:32.631Z,101097.00
2022-10-16T20:25:19.147Z,101108.28
2022-10-16T20:28:06.041Z,101122.16
2022-10-16T20:30:51.328Z,101131.69
2022-10-16T20:33:36.896Z,101145.56
2022-10-16T20:36:24.609Z,101146.41
2022-10-16T20:39:10.865Z,101134.25
2022-10-16T20:41:55.835Z,101126.41
2022-10-16T20:44:40.649Z,101131.53
2022-10-16T20:47:26.509Z,101138.41
2022-10-16T20:50:12.086Z,101140.13
2022-10-16T20:52:58.211Z,101140.97
2022-10-16T20:55:43.569Z,101135.88
2022-10-16T20:58:28.401Z,101137.59
2022-10-16T21:01:22.136Z,101132.44
2022-10-16T21:04:08.852Z,101150.59
2022-10-16T21:06:53.942Z,101149.69
2022-10-16T21:09:38.822Z,101144.47
2022-10-16T21:12:25.219Z,101140.19
2022-10-16T21:15:15.394Z,101133.31
2022-10-16T21:18:00.549Z,101137.56
2022-10-16T21:20:45.961Z,101139.34
2022-10-16T21:23:32.047Z,101129.81
2022-10-16T21:26:18.625Z,101141.81
2022-10-16T21:29:06.808Z,101134.84
2022-10-16T21:31:52.327Z,101138.38
2022-10-16T21:34:37.617Z,101136.63
2022-10-16T21:37:22.761Z,101136.59
2022-10-16T21:40:08.778Z,101130.63
2022-10-16T21:42:54.029Z,101132.34
2022-10-16T21:45:39.448Z,101130.59
2022-10-16T21:48:24.270Z,101123.69
2022-10-16T21:51:11.480Z,101135.00
2022-10-16T21:53:56.960Z,101132.38
2022-10-16T21:56:42.195Z,101133.25
2022-10-16T21:59:27.616Z,101128.06
2022-10-16T22:02:12.546Z,101123.72
2022-10-16T22:04:57.686Z,101115.88
2022-10-16T22:07:42.888Z,101109.78
2022-10-16T22:10:27.734Z,101111.47
2022-10-16T22:13:12.697Z,101105.41
2022-10-16T22:15:57.639Z,101101.97
2022-10-16T22:18:42.922Z,101102.78
2022-10-16T22:21:29.255Z,101101.94
2022-10-16T22:24:17.918Z,101106.28
2022-10-16T22:27:02.889Z,101098.47
2022-10-16T22:29:51.609Z,101097.50
2022-10-16T22:32:36.930Z,101094.94
2022-10-16T22:35:21.694Z,101093.16
2022-10-16T22:38:06.875Z,101103.69
2022-10-16T22:40:52.090Z,101092.31
2022-10-16T22:43:39.285Z,101093.16
2022-10-16T22:46:30.240Z,101098.38
2022-10-16T22:49:15.547Z,101099.22
2022-10-16T22:52:00.593Z,101090.59
2022-10-16T22:54:46.090Z,101094.03
2022-10-16T22:57:31.278Z,101094.88
2022-10-16T23:00:19.610Z,101091.38
2022-10-16T23:03:04.876Z,101102.66
2022-10-16T23:05:50.528Z,101098.28
2022-10-16T23:08:35.853Z,101105.25
2022-10-16T23:11:21.405Z,101100.91
2022-10-16T23:14:06.521Z,101100.88
2022-10-16T23:16:51.823Z,101106.06
2022-10-16T23:19:36.770Z,101100.00
2022-10-16T23:22:21.921Z,101103.44
2022-10-16T23:25:07.087Z,101100.78
2022-10-16T23:27:55.615Z,101102.47
2022-10-16T23:30:40.819Z,101101.53
2022-10-16T23:33:25.913Z,101094.56
2022-10-16T23:36:14.254Z,101098.03
2022-10-16T23:38:59.704Z,101103.28
2022-10-16T23:41:44.629Z,101098.06
2022-10-16T23:44:29.896Z,101097.22
2022-10-16T23:47:14.924Z,101092.84
2022-10-16T23:50:00.294Z,101090.22
2022-10-16T23:52:45.199Z,101090.34
2022-10-16T23:55:30.229Z,101088.59
2022-10-16T23:58:15.903Z,101097.22
